Time;durP1;ratioP1;P1;durP2;ratioP2;P2;SDS_P1;SDS_P2;PMS_P1;PMS_P2;Temp;Humidity;BMP_temperature;BMP_pressure;BME280_temperature;BME280_humidity;BME280_pressure;Samples;Min_cycle;Max_cycle;Signal;HPM_P1;HPM_P2
2022/06/04 00:01:04;;;;;;;9.57;8.02;;;11.70;74.40;;;;;;4963443;28;20042;-80
2022/06/04 00:03:32;;;;;;;8.23;7.40;;;11.60;74.50;;;;;;4954648;28;20404;-81
2022/06/04 00:06:00;;;;;;;9.10;7.72;;;11.60;74.60;;;;;;4970830;28;20043;-82
2022/06/04 00:08:30;;;;;;;15.85;7.90;;;11.60;74.60;;;;;;4970559;28;20420;-82
2022/06/04 00:16:32;;;;;;;12.85;8.13;;;11.50;74.90;;;;;;4954090;28;20043;-80
2022/06/04 00:19:01;;;;;;;11.88;8.13;;;11.50;74.90;;;;;;4955282;28;20050;-79
2022/06/04 00:21:29;;;;;;;9.77;7.93;;;11.40;74.80;;;;;;4975418;28;20050;-75
2022/06/04 00:23:57;;;;;;;9.30;8.35;;;11.40;75.10;;;;;;4972884;28;20055;-79
2022/06/04 00:26:25;;;;;;;10.85;8.57;;;11.40;75.00;;;;;;4970372;28;20054;-80
2022/06/04 00:28:53;;;;;;;11.75;8.35;;;11.40;75.00;;;;;;4954784;28;20047;-81
2022/06/04 00:31:21;;;;;;;12.80;8.95;;;11.30;74.90;;;;;;4956394;28;20043;-81
2022/06/04 00:33:48;;;;;;;11.60;8.93;;;11.30;74.90;;;;;;4968307;28;20496;-81
2022/06/04 00:36:16;;;;;;;17.17;9.80;;;11.30;75.00;;;;;;4969795;28;20056;-81
2022/06/04 00:38:45;;;;;;;9.98;8.73;;;11.30;75.00;;;;;;4970382;28;20047;-82
2022/06/04 00:41:34;;;;;;;12.27;9.13;;;11.30;75.10;;;;;;4972403;28;20392;-79
2022/06/04 00:44:11;;;;;;;10.77;8.70;;;11.30;75.30;;;;;;4958911;28;20050;-79
2022/06/04 00:46:41;;;;;;;10.50;9.07;;;11.30;75.40;;;;;;4969243;28;20074;-79
2022/06/04 00:49:18;;;;;;;11.77;9.07;;;11.20;75.60;;;;;;4970531;28;20404;-79
2022/06/04 00:51:49;;;;;;;13.98;9.15;;;11.20;75.60;;;;;;4970650;28;20042;-79
2022/06/04 00:54:17;;;;;;;12.30;8.80;;;11.20;75.60;;;;;;4972656;28;20062;-80
2022/06/04 00:57:26;;;;;;;11.75;8.50;;;11.20;75.50;;;;;;4971437;28;20496;-80
2022/06/04 01:00:17;;;;;;;9.73;8.20;;;11.20;75.50;;;;;;4948343;28;20071;-80
2022/06/04 01:03:07;;;;;;;8.88;7.97;;;11.20;75.50;;;;;;4973908;28;20072;-80
2022/06/04 01:05:53;;;;;;;10.57;8.70;;;11.20;75.40;;;;;;4972967;28;20047;-80
2022/06/04 01:08:39;;;;;;;8.68;7.47;;;11.20;75.40;;;;;;4973170;28;20054;-80
2022/06/04 01:11:13;;;;;;;9.27;7.57;;;11.20;75.50;;;;;;4957610;28;20042;-80
2022/06/04 01:13:49;;;;;;;12.00;7.97;;;11.10;75.60;;;;;;4974378;28;20070;-81
2022/06/04 01:16:20;;;;;;;9.63;7.50;;;11.10;75.70;;;;;;4975582;28;20062;-80
2022/06/04 01:19:28;;;;;;;10.43;7.82;;;11.00;75.90;;;;;;4974375;28;20062;-79
2022/06/04 01:22:25;;;;;;;11.00;7.68;;;11.00;76.00;;;;;;4973719;28;20054;-80
2022/06/04 01:25:06;;;;;;;11.85;7.97;;;11.00;76.00;;;;;;4954214;28;20575;-80
2022/06/04 01:27:49;;;;;;;16.30;8.23;;;11.10;75.90;;;;;;4972417;28;20420;-81
2022/06/04 01:30:20;;;;;;;9.93;8.27;;;11.00;75.90;;;;;;4959699;28;20047;-81
2022/06/04 01:32:56;;;;;;;9.23;8.30;;;10.90;76.00;;;;;;4946916;28;20057;-81
2022/06/04 01:35:33;;;;;;;11.93;8.80;;;10.90;76.20;;;;;;4977390;28;20416;-82
2022/06/04 01:38:15;;;;;;;13.10;8.88;;;10.80;76.10;;;;;;4974873;28;20046;-81
2022/06/04 01:41:04;;;;;;;10.68;8.73;;;10.80;76.30;;;;;;4970929;28;20131;-80
2022/06/04 01:43:49;;;;;;;11.40;9.18;;;10.70;76.40;;;;;;4975504;28;20054;-81
2022/06/04 01:46:23;;;;;;;10.45;9.32;;;10.70;76.50;;;;;;4974353;28;20053;-81
2022/06/04 01:48:56;;;;;;;15.35;9.77;;;10.60;76.60;;;;;;4976768;28;20106;-82
2022/06/04 01:51:28;;;;;;;16.10;10.48;;;10.50;76.80;;;;;;4973488;28;20042;-81
2022/06/04 01:54:03;;;;;;;12.05;9.35;;;10.50;76.90;;;;;;4973988;28;20054;-80
2022/06/04 01:56:37;;;;;;;14.05;9.88;;;10.40;77.20;;;;;;4974851;28;20050;-81
2022/06/04 01:59:23;;;;;;;13.43;9.68;;;10.30;77.40;;;;;;4972405;28;20054;-81
2022/06/04 02:01:54;;;;;;;12.55;10.35;;;10.30;77.40;;;;;;4970687;28;20039;-79
2022/06/04 02:04:27;;;;;;;12.65;10.07;;;10.30;77.40;;;;;;4974590;28;20058;-79
2022/06/04 02:09:58;;;;;;;13.57;9.50;;;10.30;77.60;;;;;;4973905;28;20062;-80
2022/06/04 02:12:26;;;;;;;11.70;8.90;;;10.20;77.70;;;;;;4972795;28;20404;-79
2022/06/04 02:14:54;;;;;;;13.85;9.30;;;10.30;77.60;;;;;;4974357;28;20066;-78
2022/06/04 02:17:24;;;;;;;13.13;8.80;;;10.20;77.60;;;;;;4952754;29;20497;-79
2022/06/04 02:19:52;;;;;;;11.45;7.90;;;10.20;77.60;;;;;;4963894;28;20043;-79
2022/06/04 02:22:20;;;;;;;11.93;7.50;;;10.20;77.80;;;;;;4974606;28;20054;-79
2022/06/04 02:24:47;;;;;;;8.57;6.93;;;10.20;77.90;;;;;;4974778;28;20051;-79
2022/06/04 02:27:15;;;;;;;10.57;7.05;;;10.20;77.90;;;;;;4963443;28;20065;-79
2022/06/04 02:29:43;;;;;;;11.38;6.57;;;10.20;77.90;;;;;;4959767;28;20058;-79
2022/06/04 02:32:20;;;;;;;8.82;6.80;;;10.10;77.90;;;;;;4949467;28;20046;-79
2022/06/04 02:35:32;;;;;;;11.60;7.00;;;10.10;78.10;;;;;;4970868;28;20047;-79
2022/06/04 02:38:15;;;;;;;10.70;6.50;;;10.10;78.50;;;;;;4904665;29;20052;-79
2022/06/04 02:40:53;;;;;;;;;;;10.00;78.50;;;;;;4914882;29;20048;-78
2022/06/04 02:43:50;;;;;;;8.43;5.93;;;10.00;78.50;;;;;;4911497;29;19930;-79
2022/06/04 02:46:27;;;;;;;10.60;6.82;;;9.90;78.60;;;;;;4906571;29;20494;-79
2022/06/04 02:49:08;;;;;;;8.68;6.15;;;9.90;78.80;;;;;;4914054;29;20056;-79
2022/06/04 02:51:42;;;;;;;7.13;6.03;;;9.90;78.80;;;;;;4910055;29;20048;-80
2022/06/04 02:54:34;;;;;;;9.13;6.05;;;9.80;78.90;;;;;;4909173;29;20063;-80
2022/06/04 02:57:04;;;;;;;6.63;5.93;;;9.80;79.10;;;;;;4913542;29;20417;-79
2022/06/04 02:59:34;;;;;;;10.60;6.82;;;9.60;79.20;;;;;;4912618;29;20052;-80
2022/06/04 03:02:04;;;;;;;10.45;6.78;;;9.60;79.50;;;;;;4896496;29;20063;-79
2022/06/04 03:04:47;;;;;;;11.20;6.82;;;9.60;79.70;;;;;;4898840;29;20055;-79
2022/06/04 03:07:16;;;;;;;7.47;6.22;;;9.50;79.90;;;;;;4897769;29;20530;-79
2022/06/04 03:09:45;;;;;;;7.60;6.80;;;9.50;80.00;;;;;;4913938;29;20398;-80
2022/06/04 03:12:13;;;;;;;8.25;6.18;;;9.50;80.20;;;;;;4950573;28;20063;-79
2022/06/04 03:14:41;;;;;;;10.73;6.53;;;9.50;80.40;;;;;;4971530;28;20057;-80
2022/06/04 03:17:11;;;;;;;8.60;5.60;;;9.50;80.40;;;;;;4964686;28;20055;-80
2022/06/04 03:19:39;;;;;;;8.57;5.70;;;9.50;80.60;;;;;;4957101;28;20057;-79
2022/06/04 03:22:06;;;;;;;9.38;5.13;;;9.50;80.60;;;;;;4973449;28;20425;-79
2022/06/04 03:24:34;;;;;;;6.40;4.65;;;9.60;80.70;;;;;;4972686;28;20496;-80
2022/06/04 03:27:02;;;;;;;6.20;4.78;;;9.70;80.70;;;;;;4972580;28;20058;-80
2022/06/04 03:29:29;;;;;;;5.78;4.25;;;9.80;80.70;;;;;;4970619;28;20508;-80
2022/06/04 03:31:57;;;;;;;7.10;4.07;;;9.80;80.50;;;;;;4966749;28;20057;-80
2022/06/04 03:34:25;;;;;;;7.75;4.28;;;9.90;80.40;;;;;;4960144;28;20655;-80
2022/06/04 03:36:53;;;;;;;10.52;4.15;;;10.00;80.30;;;;;;4962729;28;20039;-80
2022/06/04 03:39:20;;;;;;;6.07;3.85;;;10.10;80.10;;;;;;4964983;28;20059;-80
2022/06/04 03:41:48;;;;;;;8.65;4.30;;;10.20;80.00;;;;;;4973080;28;20397;-80
2022/06/04 03:44:16;;;;;;;7.38;4.43;;;10.30;79.80;;;;;;4972965;28;20058;-80
2022/06/04 03:46:43;;;;;;;7.88;3.78;;;10.30;79.60;;;;;;4960099;28;20062;-80
2022/06/04 03:49:11;;;;;;;6.90;4.40;;;10.30;79.40;;;;;;4973594;28;20055;-81
2022/06/04 03:51:39;;;;;;;5.40;4.53;;;10.40;79.30;;;;;;4960856;28;20051;-80
2022/06/04 03:54:07;;;;;;;7.43;4.47;;;10.50;79.20;;;;;;4971066;28;20050;-80
2022/06/04 03:56:35;;;;;;;5.25;4.55;;;10.50;79.10;;;;;;4972700;28;20397;-80
2022/06/04 03:59:03;;;;;;;6.22;4.50;;;10.50;78.80;;;;;;4971671;28;20050;-80
2022/06/04 04:01:31;;;;;;;8.40;5.50;;;10.50;78.70;;;;;;4971883;28;20062;-81
2022/06/04 04:04:00;;;;;;;6.68;5.80;;;10.60;78.60;;;;;;4950696;28;20055;-80
2022/06/04 04:06:31;;;;;;;12.02;6.03;;;10.60;78.50;;;;;;4955057;28;20047;-80
2022/06/04 04:08:59;;;;;;;7.18;6.20;;;10.70;78.30;;;;;;4960080;28;20047;-81
2022/06/04 04:11:28;;;;;;;8.52;6.63;;;10.60;78.10;;;;;;4958299;28;20074;-81
2022/06/04 04:13:55;;;;;;;8.80;7.13;;;10.60;78.00;;;;;;4943604;28;20059;-80
2022/06/04 04:16:23;;;;;;;11.43;7.10;;;10.60;77.80;;;;;;4956158;28;20035;-81
2022/06/04 04:18:52;;;;;;;11.63;6.97;;;10.60;77.70;;;;;;4968687;28;20540;-81
2022/06/04 04:21:21;;;;;;;9.70;7.45;;;10.60;77.60;;;;;;4968265;28;20055;-81
2022/06/04 04:23:49;;;;;;;11.18;7.65;;;10.70;77.40;;;;;;4965948;28;20046;-81
2022/06/04 04:26:17;;;;;;;11.68;8.55;;;10.60;77.20;;;;;;4972411;28;20055;-81
2022/06/04 04:28:45;;;;;;;10.40;8.27;;;10.60;77.10;;;;;;4972398;28;20043;-81
2022/06/04 04:31:18;;;;;;;11.10;8.93;;;10.60;77.10;;;;;;4952904;28;20042;-80
2022/06/04 04:33:45;;;;;;;9.82;7.25;;;10.60;77.00;;;;;;4971977;28;20130;-81
2022/06/04 04:36:14;;;;;;;12.13;8.63;;;10.60;76.90;;;;;;4974905;28;20046;-82
2022/06/04 04:38:42;;;;;;;11.88;8.07;;;10.70;76.80;;;;;;4976760;28;20058;-82
2022/06/04 04:41:12;;;;;;;11.25;8.43;;;10.70;76.80;;;;;;4975612;28;20058;-82
2022/06/04 04:43:40;;;;;;;14.07;8.82;;;10.70;76.70;;;;;;4964116;28;20058;-80
2022/06/04 04:46:11;;;;;;;14.50;9.70;;;10.80;76.60;;;;;;4950825;28;20045;-79
2022/06/04 04:48:39;;;;;;;11.15;8.80;;;10.80;76.50;;;;;;4975533;28;20496;-79
2022/06/04 04:51:15;;;;;;;11.05;8.65;;;10.80;76.40;;;;;;4975453;28;20065;-78
2022/06/04 04:53:44;;;;;;;12.10;9.05;;;10.80;76.30;;;;;;4975228;28;20050;-79
2022/06/04 04:56:19;;;;;;;12.48;8.75;;;10.80;76.20;;;;;;4963749;28;20404;-80
2022/06/04 04:58:47;;;;;;;14.98;8.70;;;10.80;76.00;;;;;;4975599;28;20042;-79
2022/06/04 05:01:25;;;;;;;11.57;8.57;;;10.80;75.90;;;;;;4943795;28;20058;-80
2022/06/04 05:03:54;;;;;;;10.82;8.80;;;10.90;75.80;;;;;;4970456;28;20408;-80
2022/06/04 05:06:29;;;;;;;11.02;8.75;;;10.90;75.70;;;;;;4974600;28;20043;-80
2022/06/04 05:08:57;;;;;;;18.23;10.02;;;11.00;75.60;;;;;;4944832;28;20042;-79
2022/06/04 05:11:27;;;;;;;13.18;10.15;;;11.00;75.50;;;;;;4974972;28;20050;-79
2022/06/04 05:13:59;;;;;;;11.63;8.95;;;11.00;75.50;;;;;;4975497;28;20416;-80
2022/06/04 05:16:33;;;;;;;13.98;9.93;;;11.10;75.40;;;;;;4965576;28;20077;-79
2022/06/04 05:19:01;;;;;;;10.27;9.18;;;11.10;75.30;;;;;;4956947;28;20055;-78
2022/06/04 05:21:35;;;;;;;11.95;9.70;;;11.10;75.30;;;;;;4968961;28;20453;-79
2022/06/04 05:24:04;;;;;;;13.35;9.35;;;11.20;75.30;;;;;;4953082;28;20504;-78
2022/06/04 05:26:32;;;;;;;11.68;9.63;;;11.20;75.20;;;;;;4975117;28;20064;-79
2022/06/04 05:29:00;;;;;;;10.65;9.55;;;11.20;75.10;;;;;;4967322;28;20058;-79
2022/06/04 05:31:28;;;;;;;10.93;8.27;;;11.20;75.10;;;;;;4971322;28;20050;-79
2022/06/04 05:33:57;;;;;;;13.00;9.48;;;11.30;75.00;;;;;;4957499;28;20062;-79
2022/06/04 05:36:24;;;;;;;10.43;8.80;;;11.30;74.90;;;;;;4958751;28;20058;-79
2022/06/04 05:38:52;;;;;;;10.98;9.00;;;11.30;74.90;;;;;;4958307;28;20058;-80
2022/06/04 05:41:19;;;;;;;13.30;9.15;;;11.30;74.80;;;;;;4958310;28;20045;-80
2022/06/04 05:43:47;;;;;;;10.75;9.23;;;11.30;74.70;;;;;;4972053;28;20516;-79
2022/06/04 05:46:15;;;;;;;13.55;9.30;;;11.30;74.60;;;;;;4974413;28;20058;-79
2022/06/04 05:48:45;;;;;;;14.25;9.68;;;11.30;74.60;;;;;;4974808;28;20062;-79
2022/06/04 05:51:17;;;;;;;11.68;8.45;;;11.40;74.40;;;;;;4974345;28;20054;-79
2022/06/04 05:53:45;;;;;;;11.33;8.60;;;11.40;74.30;;;;;;4964634;28;20432;-80
2022/06/04 05:56:18;;;;;;;10.55;8.98;;;11.50;74.10;;;;;;4967604;28;20307;-80
2022/06/04 05:58:48;;;;;;;11.55;8.23;;;11.50;74.00;;;;;;4974958;28;20057;-79
2022/06/04 06:01:17;;;;;;;10.00;8.65;;;11.50;74.00;;;;;;4974180;28;20058;-80
2022/06/04 06:03:45;;;;;;;12.98;8.80;;;11.50;73.90;;;;;;4955221;28;20058;-80
2022/06/04 06:06:16;;;;;;;12.85;8.32;;;11.40;73.80;;;;;;4974744;28;20057;-80
2022/06/04 06:09:01;;;;;;;10.57;8.77;;;11.40;73.80;;;;;;4971365;28;20039;-80
2022/06/04 06:11:28;;;;;;;9.50;8.60;;;11.40;73.80;;;;;;4974604;28;20385;-80
2022/06/04 06:13:56;;;;;;;12.60;8.07;;;11.40;73.80;;;;;;4974294;28;20082;-80
2022/06/04 06:16:27;;;;;;;10.57;8.32;;;11.50;73.80;;;;;;4975332;28;20055;-79
2022/06/04 06:18:56;;;;;;;15.60;8.73;;;11.50;73.70;;;;;;4960564;28;20046;-78
2022/06/04 06:21:29;;;;;;;11.07;8.32;;;11.60;73.60;;;;;;4970602;28;20405;-80
2022/06/04 06:23:57;;;;;;;10.00;7.10;;;11.80;73.50;;;;;;4954938;28;20054;-79
2022/06/04 06:26:28;;;;;;;11.13;7.90;;;11.90;73.30;;;;;;4974757;28;20418;-80
2022/06/04 06:28:56;;;;;;;10.43;6.75;;;12.10;72.90;;;;;;4972716;28;20054;-79
2022/06/04 06:31:26;;;;;;;11.15;6.63;;;12.10;72.70;;;;;;4972916;28;20062;-80
2022/06/04 06:33:55;;;;;;;10.90;5.80;;;12.20;72.40;;;;;;4972931;28;20057;-81
2022/06/04 06:36:23;;;;;;;5.43;4.75;;;12.30;72.30;;;;;;4974182;28;20050;-82
2022/06/04 06:38:51;;;;;;;7.00;5.32;;;12.40;71.40;;;;;;4973559;28;20507;-81
2022/06/04 06:41:23;;;;;;;9.25;5.80;;;12.40;71.00;;;;;;4967774;28;20043;-81
2022/06/04 06:43:51;;;;;;;8.00;5.65;;;12.40;71.00;;;;;;4950704;28;20493;-81
2022/06/04 06:46:31;;;;;;;10.00;5.43;;;12.60;70.90;;;;;;4964157;28;20110;-80
2022/06/04 06:49:11;;;;;;;10.80;5.00;;;12.70;70.70;;;;;;4957812;28;20039;-80
2022/06/04 06:51:47;;;;;;;4.43;4.03;;;12.80;70.40;;;;;;4959207;28;20057;-80
2022/06/04 06:54:17;;;;;;;6.95;4.30;;;12.80;69.70;;;;;;4971801;28;20055;-80
2022/06/04 06:56:48;;;;;;;6.65;4.35;;;12.80;69.20;;;;;;4940363;28;20050;-80
2022/06/04 06:59:16;;;;;;;9.88;5.13;;;12.80;68.90;;;;;;4970441;28;20055;-80
2022/06/04 07:01:44;;;;;;;9.15;5.05;;;12.80;68.90;;;;;;4972744;28;20054;-80
2022/06/04 07:04:12;;;;;;;8.05;4.60;;;12.90;69.00;;;;;;4955621;28;20062;-80
2022/06/04 07:06:49;;;;;;;9.15;4.78;;;13.00;69.00;;;;;;4973358;28;20050;-81
2022/06/04 07:09:22;;;;;;;8.55;4.90;;;13.10;68.50;;;;;;4973431;28;20054;-80
2022/06/04 07:11:51;;;;;;;5.97;4.40;;;13.10;68.20;;;;;;4970148;28;20412;-80
2022/06/04 07:14:20;;;;;;;6.45;4.03;;;13.20;68.20;;;;;;4958599;28;20054;-78
2022/06/04 07:16:47;;;;;;;4.53;3.65;;;13.30;68.20;;;;;;4956956;28;20412;-79
2022/06/04 07:19:17;;;;;;;5.10;3.22;;;13.30;67.90;;;;;;4972569;28;20047;-79
2022/06/04 07:21:45;;;;;;;5.05;3.90;;;13.40;67.30;;;;;;4971640;28;20054;-81
2022/06/04 07:24:13;;;;;;;6.57;3.80;;;13.40;66.90;;;;;;4952914;28;20043;-78
2022/06/04 07:26:42;;;;;;;9.57;4.28;;;13.50;66.70;;;;;;4973028;28;20388;-78
2022/06/04 07:29:11;;;;;;;6.40;3.45;;;13.50;66.50;;;;;;4972604;28;20058;-77
2022/06/04 07:31:39;;;;;;;8.82;4.22;;;13.70;66.40;;;;;;4959626;28;20046;-77
2022/06/04 07:34:07;;;;;;;6.00;4.20;;;13.80;66.00;;;;;;4972241;28;20039;-77
2022/06/04 07:36:38;;;;;;;7.53;4.88;;;14.00;65.80;;;;;;4972122;28;20054;-76
2022/06/04 07:39:09;;;;;;;6.05;4.80;;;14.10;65.60;;;;;;4972731;28;20038;-77
2022/06/04 07:41:40;;;;;;;8.88;5.57;;;14.30;65.10;;;;;;4962912;28;20065;-74
2022/06/04 07:44:12;;;;;;;8.85;5.80;;;14.40;64.50;;;;;;4972659;28;20043;-77
2022/06/04 07:46:45;;;;;;;6.57;5.68;;;14.40;64.30;;;;;;4972865;28;20507;-76
2022/06/04 07:49:13;;;;;;;7.97;5.93;;;14.40;64.20;;;;;;4968722;28;20059;-76
2022/06/04 07:51:42;;;;;;;10.90;5.28;;;14.40;64.20;;;;;;4971406;28;20043;-76
2022/06/04 07:54:11;;;;;;;6.43;4.72;;;14.40;64.00;;;;;;4972600;28;20066;-76
2022/06/04 07:56:39;;;;;;;9.00;5.90;;;14.50;63.90;;;;;;4973073;28;20043;-76
2022/06/04 07:59:10;;;;;;;8.25;5.32;;;14.50;63.60;;;;;;4972922;28;20042;-77
2022/06/04 08:01:38;;;;;;;9.65;6.22;;;14.40;63.30;;;;;;4959169;28;20059;-77
2022/06/04 08:04:06;;;;;;;8.63;6.15;;;14.40;63.30;;;;;;4949401;28;20058;-77
2022/06/04 08:06:34;;;;;;;7.85;5.57;;;14.50;63.50;;;;;;4969125;28;20047;-77
2022/06/04 08:09:01;;;;;;;8.82;5.97;;;14.60;63.50;;;;;;4958467;28;20046;-77
2022/06/04 08:11:32;;;;;;;6.50;5.30;;;14.70;63.20;;;;;;4975331;28;20053;-77
2022/06/04 08:14:10;;;;;;;7.43;4.93;;;14.70;62.70;;;;;;4975446;28;20035;-77
2022/06/04 08:16:44;;;;;;;10.77;5.35;;;14.70;62.40;;;;;;4956317;28;20046;-77
2022/06/04 08:19:12;;;;;;;7.07;4.57;;;14.70;62.10;;;;;;4975402;28;20061;-76
2022/06/04 08:21:41;;;;;;;5.95;4.70;;;14.80;62.20;;;;;;4975102;28;20051;-76
2022/06/04 08:24:11;;;;;;;7.30;4.43;;;14.80;62.00;;;;;;4975084;28;20050;-76
2022/06/04 08:26:41;;;;;;;6.03;4.35;;;15.00;61.90;;;;;;4957167;28;20515;-76
2022/06/04 08:29:09;;;;;;;8.38;4.88;;;15.10;61.90;;;;;;4975716;28;20047;-76
2022/06/04 08:31:37;;;;;;;7.40;4.15;;;15.30;61.60;;;;;;4959033;28;20047;-76
2022/06/04 08:34:05;;;;;;;8.10;4.72;;;15.50;60.60;;;;;;4974437;28;20055;-77
2022/06/04 08:36:33;;;;;;;9.48;4.97;;;15.60;60.10;;;;;;4976065;28;20050;-76
2022/06/04 08:39:02;;;;;;;6.10;4.60;;;15.80;60.30;;;;;;4976324;28;20053;-74
2022/06/04 08:42:13;;;;;;;6.82;4.00;;;15.90;60.00;;;;;;4975079;28;20466;-75
2022/06/04 08:44:53;;;;;;;9.27;4.68;;;16.10;59.70;;;;;;4973080;28;20051;-77
2022/06/04 08:47:28;;;;;;;6.03;4.20;;;16.10;59.10;;;;;;4966752;28;20046;-76
2022/06/04 08:50:01;;;;;;;11.30;4.32;;;15.90;59.00;;;;;;4976071;28;20050;-77
2022/06/04 08:52:38;;;;;;;10.07;4.63;;;15.80;59.20;;;;;;4973627;28;20046;-75
2022/06/04 08:58:04;;;;;;;7.65;4.53;;;15.30;60.10;;;;;;4974261;28;20042;-76
2022/06/04 09:00:43;;;;;;;6.43;4.70;;;15.10;60.60;;;;;;4971724;28;20055;-77
2022/06/04 09:03:19;;;;;;;7.63;4.65;;;15.00;61.20;;;;;;4971062;28;20050;-77
2022/06/04 09:05:53;;;;;;;7.75;4.30;;;14.90;61.40;;;;;;4975501;28;20051;-77
2022/06/04 09:08:41;;;;;;;;;;;15.00;61.50;;;;;;4972463;28;20053;-77
2022/06/04 09:11:18;;;;;;;10.00;4.80;;;15.00;61.40;;;;;;4971566;28;19922;-77
2022/06/04 09:14:19;;;;;;;7.28;4.78;;;15.10;61.00;;;;;;4973124;28;20460;-77
2022/06/04 09:17:02;;;;;;;11.45;4.57;;;15.20;60.60;;;;;;4971733;28;20054;-77
2022/06/04 09:19:35;;;;;;;6.47;4.93;;;15.30;60.20;;;;;;4973619;28;20062;-77
2022/06/04 09:22:11;;;;;;;7.93;5.50;;;15.40;60.00;;;;;;4973306;28;20051;-77
2022/06/04 09:24:39;;;;;;;9.38;5.40;;;15.60;59.10;;;;;;4969371;28;20058;-77
2022/06/04 09:27:21;;;;;;;9.23;5.85;;;15.80;58.70;;;;;;4950093;28;20055;-77
2022/06/04 09:30:01;;;;;;;10.70;5.88;;;15.90;58.00;;;;;;4970853;28;20069;-78
2022/06/04 09:32:59;;;;;;;8.65;5.25;;;15.90;57.70;;;;;;4940355;28;20620;-78
2022/06/04 09:35:30;;;;;;;8.82;5.75;;;16.00;57.20;;;;;;4955093;28;20058;-77
2022/06/04 09:37:59;;;;;;;9.38;5.93;;;16.10;57.10;;;;;;4956175;28;20051;-77
2022/06/04 09:40:30;;;;;;;9.48;6.32;;;16.20;57.40;;;;;;4972120;28;20396;-77
2022/06/04 09:43:17;;;;;;;8.98;5.85;;;16.40;57.10;;;;;;4955470;28;20118;-77
2022/06/04 09:46:06;;;;;;;8.10;5.32;;;16.50;56.50;;;;;;4972515;28;20408;-77
2022/06/04 09:48:38;;;;;;;6.35;4.88;;;16.40;56.00;;;;;;4955482;28;20050;-76
2022/06/04 09:51:16;;;;;;;5.35;4.85;;;16.40;56.20;;;;;;4972469;28;20070;-75
2022/06/04 09:53:47;;;;;;;5.95;4.38;;;16.30;56.10;;;;;;4971616;28;20047;-77
2022/06/04 09:56:28;;;;;;;7.40;4.57;;;16.50;56.00;;;;;;4956111;28;20047;-77
2022/06/04 09:59:28;;;;;;;6.57;4.03;;;16.70;55.50;;;;;;4971515;28;20526;-76
2022/06/04 10:02:01;;;;;;;4.78;3.63;;;16.70;55.30;;;;;;4975375;28;20413;-75
2022/06/04 10:04:47;;;;;;;8.15;4.20;;;16.80;55.40;;;;;;4956286;28;20054;-75
2022/06/04 10:07:27;;;;;;;6.25;3.90;;;16.80;55.20;;;;;;4973943;28;20408;-76
2022/06/04 10:09:56;;;;;;;7.57;3.90;;;16.80;55.20;;;;;;4963958;28;20047;-75
2022/06/04 10:15:33;;;;;;;5.85;3.90;;;17.00;54.60;;;;;;4971232;28;20058;-76
2022/06/04 10:18:05;;;;;;;6.47;3.97;;;17.10;54.20;;;;;;4972555;28;20115;-75
2022/06/04 10:20:34;;;;;;;4.35;3.90;;;17.20;54.60;;;;;;4967817;28;20054;-76
2022/06/04 10:23:11;;;;;;;4.25;3.63;;;17.40;54.30;;;;;;4970704;28;20047;-77
2022/06/04 10:25:47;;;;;;;5.03;4.00;;;17.60;53.60;;;;;;4973030;28;20428;-77
2022/06/04 10:28:28;;;;;;;4.78;3.88;;;17.50;53.20;;;;;;4971144;28;20400;-77
2022/06/04 10:31:07;;;;;;;7.05;4.30;;;17.30;53.50;;;;;;4971571;28;20054;-77
2022/06/04 10:33:56;;;;;;;3.78;3.47;;;17.10;54.00;;;;;;4971819;28;20051;-76
2022/06/04 10:36:35;;;;;;;5.43;4.07;;;16.90;54.20;;;;;;4966542;28;20069;-89
2022/06/04 10:39:32;;;;;;;5.78;4.35;;;16.90;54.30;;;;;;4939808;28;20464;-78
2022/06/04 10:42:21;;;;;;;6.15;3.53;;;17.00;54.60;;;;;;4965675;28;20485;-79
2022/06/04 10:45:06;;;;;;;4.90;3.95;;;17.10;54.40;;;;;;4969272;28;20050;-79
2022/06/04 10:47:41;;;;;;;6.30;4.05;;;17.30;54.40;;;;;;4954069;28;20484;-79
2022/06/04 10:50:18;;;;;;;4.43;3.92;;;17.40;54.30;;;;;;4971946;28;20480;-76
2022/06/04 10:52:52;;;;;;;4.55;3.22;;;17.90;54.10;;;;;;4969251;28;20441;-79
2022/06/04 10:55:31;;;;;;;6.30;4.00;;;18.60;52.80;;;;;;4950248;29;20058;-78
2022/06/04 10:58:23;;;;;;;4.97;3.95;;;18.80;51.70;;;;;;4972439;28;20062;-77
2022/06/04 11:00:58;;;;;;;3.60;3.30;;;19.10;51.20;;;;;;4950614;28;20051;-75
2022/06/04 11:04:04;;;;;;;3.85;3.45;;;19.20;49.90;;;;;;4972455;28;20054;-74
2022/06/04 11:06:37;;;;;;;4.18;3.50;;;19.10;49.70;;;;;;4955241;28;20051;-78
2022/06/04 11:09:16;;;;;;;8.02;3.88;;;19.10;49.70;;;;;;4973451;28;20070;-76
2022/06/04 11:11:43;;;;;;;7.53;3.80;;;19.10;49.40;;;;;;4973140;28;20054;-82
2022/06/04 11:14:38;;;;;;;5.03;4.32;;;19.20;49.00;;;;;;4971135;28;20077;-76
2022/06/04 11:17:31;;;;;;;4.70;3.97;;;19.00;48.80;;;;;;4949641;28;20250;-76
2022/06/04 11:20:20;;;;;;;6.28;4.45;;;18.70;49.30;;;;;;4971348;28;20413;-77
2022/06/04 11:23:00;;;;;;;7.55;4.40;;;18.60;49.40;;;;;;4950984;29;20043;-77
2022/06/04 11:25:32;;;;;;;6.10;4.50;;;18.50;49.80;;;;;;4971029;28;20500;-73
2022/06/04 11:28:05;;;;;;;5.68;4.30;;;18.50;50.30;;;;;;4956059;28;20523;-77
2022/06/04 11:30:50;;;;;;;5.97;4.05;;;18.60;49.80;;;;;;4972431;28;20054;-77
2022/06/04 11:33:43;;;;;;;7.20;4.88;;;18.60;49.70;;;;;;4971702;28;20041;-76
2022/06/04 11:36:45;;;;;;;6.40;4.30;;;18.60;49.60;;;;;;4965726;28;20039;-77
2022/06/04 11:39:25;;;;;;;8.05;4.53;;;18.60;49.80;;;;;;4969475;28;20316;-76
2022/06/04 11:42:00;;;;;;;4.40;4.00;;;18.60;49.90;;;;;;4972231;28;20069;-77
2022/06/04 11:45:01;;;;;;;4.95;3.70;;;18.60;50.00;;;;;;4971584;28;20053;-77
2022/06/04 11:47:49;;;;;;;5.68;3.60;;;18.60;50.00;;;;;;4955860;28;20050;-77
2022/06/04 11:50:38;;;;;;;8.43;4.55;;;18.80;49.90;;;;;;4957532;28;20050;-77
2022/06/04 11:53:30;;;;;;;4.93;4.20;;;18.90;50.00;;;;;;4956362;28;20054;-77
2022/06/04 11:56:11;;;;;;;8.32;4.25;;;19.10;49.20;;;;;;4971941;28;20065;-77
2022/06/04 11:58:57;;;;;;;6.93;4.40;;;19.10;48.60;;;;;;4971696;28;20046;-77
2022/06/04 12:01:57;;;;;;;7.85;4.40;;;19.30;48.40;;;;;;4968552;28;20061;-76
2022/06/04 12:04:32;;;;;;;8.40;4.88;;;19.80;47.70;;;;;;4971070;28;20085;-76
2022/06/04 12:07:09;;;;;;;7.25;4.80;;;20.00;47.40;;;;;;4969353;28;20062;-77
2022/06/04 12:09:51;;;;;;;6.18;4.07;;;20.20;47.30;;;;;;4968532;28;20046;-77
2022/06/04 12:12:28;;;;;;;6.97;4.67;;;20.40;46.00;;;;;;4971604;28;20412;-77
2022/06/04 12:15:25;;;;;;;5.80;4.20;;;20.60;45.80;;;;;;4970267;28;20289;-77
2022/06/04 12:17:58;;;;;;;8.35;4.97;;;20.80;45.10;;;;;;4969946;28;20055;-76
2022/06/04 12:26:27;;;;;;;5.28;3.72;;;20.80;44.40;;;;;;4970382;28;20051;-77
2022/06/04 12:28:57;;;;;;;6.68;4.15;;;20.30;45.20;;;;;;4965962;28;20065;-78
2022/06/04 12:31:36;;;;;;;6.70;4.53;;;20.00;45.80;;;;;;4972600;28;20055;-78
2022/06/04 12:34:26;;;;;;;4.63;4.13;;;19.70;46.70;;;;;;4954895;28;20057;-76
2022/06/04 12:36:56;;;;;;;6.47;4.20;;;19.70;47.80;;;;;;4936207;28;20051;-77
2022/06/04 12:39:27;;;;;;;6.10;4.22;;;20.00;47.50;;;;;;4971302;28;20051;-77
2022/06/04 12:42:03;;;;;;;5.82;3.72;;;20.30;46.80;;;;;;4964038;28;20489;-77
2022/06/04 12:44:34;;;;;;;5.88;3.90;;;20.30;46.30;;;;;;4970037;28;20543;-78
2022/06/04 12:47:23;;;;;;;4.78;3.53;;;20.30;46.40;;;;;;4971213;28;20053;-78
2022/06/04 12:49:54;;;;;;;4.60;3.75;;;20.30;46.70;;;;;;4973652;28;20059;-76
2022/06/04 12:52:32;;;;;;;5.45;3.92;;;20.30;46.10;;;;;;4971836;28;20035;-78
2022/06/04 12:55:16;;;;;;;6.93;3.70;;;20.30;46.50;;;;;;4968544;28;20058;-77
2022/06/04 12:57:48;;;;;;;4.78;3.92;;;20.30;46.00;;;;;;4972281;28;20058;-77
2022/06/04 13:00:18;;;;;;;5.18;3.38;;;20.50;45.90;;;;;;4968063;28;20050;-77
2022/06/04 13:03:06;;;;;;;5.05;3.10;;;20.70;45.60;;;;;;4970719;28;20055;-77
2022/06/04 13:05:59;;;;;;;3.55;3.17;;;20.90;45.20;;;;;;4974370;28;20523;-77
2022/06/04 13:08:33;;;;;;;;;;;21.20;44.90;;;;;;4974358;28;20403;-77
2022/06/04 13:11:22;;;;;;;3.10;2.72;;;21.30;43.60;;;;;;4939809;28;19929;-78
2022/06/04 13:14:40;;;;;;;2.92;2.53;;;21.10;43.50;;;;;;4973906;28;20050;-77
2022/06/04 13:17:33;;;;;;;5.63;2.90;;;20.80;43.70;;;;;;4973231;28;20050;-77
2022/06/04 13:20:30;;;;;;;3.92;2.30;;;21.30;44.20;;;;;;4972710;28;20043;-78
2022/06/04 13:23:13;;;;;;;4.95;2.25;;;21.90;42.30;;;;;;4947039;28;20050;-77
2022/06/04 13:25:48;;;;;;;4.45;1.90;;;21.90;42.10;;;;;;4953699;28;20055;-78
2022/06/04 13:28:38;;;;;;;6.07;2.17;;;21.80;42.60;;;;;;4972309;28;20050;-77
2022/06/04 13:31:17;;;;;;;2.47;2.08;;;21.40;42.80;;;;;;4915264;29;20514;-78
2022/06/04 13:33:46;;;;;;;5.32;2.40;;;21.20;43.20;;;;;;4936092;29;20059;-78
2022/06/04 13:36:18;;;;;;;4.20;1.98;;;20.90;43.70;;;;;;4932763;29;20371;-77
2022/06/04 13:38:47;;;;;;;4.40;2.20;;;20.80;44.30;;;;;;4933592;29;20062;-77
2022/06/04 13:42:09;;;;;;;5.40;2.28;;;20.80;44.10;;;;;;4933988;29;20063;-77
2022/06/04 13:44:22;;;;;;;2.35;1.65;;;21.00;43.40;;;;;;4925305;29;20048;-77
2022/06/04 13:46:50;;;;;;;7.22;2.13;;;20.80;43.70;;;;;;4934159;29;20056;-78